sensor_id;sensor_type;location;lat;lon;timestamp;P1;durP1;ratioP1;P2;durP2;ratioP2
85559;SDS011;76003;49.038;16.594;2024-03-23T00:54:00;9.88;;;6.03;;
85559;SDS011;76003;49.038;16.594;2024-03-23T00:57:26;7.25;;;5.28;;
85559;SDS011;76003;49.038;16.594;2024-03-23T00:59:51;7.13;;;5.80;;
85559;SDS011;76003;49.038;16.594;2024-03-23T01:02:38;10.50;;;5.90;;
85559;SDS011;76003;49.038;16.594;2024-03-23T01:07:58;7.25;;;5.65;;
85559;SDS011;76003;49.038;16.594;2024-03-23T01:13:04;8.05;;;6.53;;
85559;SDS011;76003;49.038;16.594;2024-03-23T01:15:51;8.52;;;5.82;;
85559;SDS011;76003;49.038;16.594;2024-03-23T01:18:32;8.35;;;6.30;;
85559;SDS011;76003;49.038;16.594;2024-03-23T01:21:13;7.63;;;5.63;;
85559;SDS011;76003;49.038;16.594;2024-03-23T01:23:54;7.68;;;5.38;;
85559;SDS011;76003;49.038;16.594;2024-03-23T01:26:20;6.75;;;5.45;;
85559;SDS011;76003;49.038;16.594;2024-03-23T01:29:06;7.60;;;5.10;;
85559;SDS011;76003;49.038;16.594;2024-03-23T01:31:47;5.70;;;5.07;;
85559;SDS011;76003;49.038;16.594;2024-03-23T01:34:28;8.88;;;5.63;;
85559;SDS011;76003;49.038;16.594;2024-03-23T01:36:54;6.70;;;5.25;;
85559;SDS011;76003;49.038;16.594;2024-03-23T01:39:40;8.18;;;5.63;;
85559;SDS011;76003;49.038;16.594;2024-03-23T01:42:21;5.80;;;5.07;;
85559;SDS011;76003;49.038;16.594;2024-03-23T01:45:01;7.35;;;5.00;;
85559;SDS011;76003;49.038;16.594;2024-03-23T01:47:42;5.95;;;4.93;;
85559;SDS011;76003;49.038;16.594;2024-03-23T01:50:09;6.82;;;6.00;;
85559;SDS011;76003;49.038;16.594;2024-03-23T01:52:56;6.90;;;5.32;;
85559;SDS011;76003;49.038;16.594;2024-03-23T01:55:38;6.35;;;4.93;;
85559;SDS011;76003;49.038;16.594;2024-03-23T01:58:19;7.10;;;5.38;;
85559;SDS011;76003;49.038;16.594;2024-03-23T02:01:00;5.85;;;5.15;;
85559;SDS011;76003;49.038;16.594;2024-03-23T02:03:40;7.60;;;5.78;;
85559;SDS011;76003;49.038;16.594;2024-03-23T02:06:21;7.80;;;6.15;;
85559;SDS011;76003;49.038;16.594;2024-03-23T02:08:48;7.93;;;5.53;;
85559;SDS011;76003;49.038;16.594;2024-03-23T02:11:34;6.88;;;5.75;;
85559;SDS011;76003;49.038;16.594;2024-03-23T02:14:00;6.88;;;5.55;;
85559;SDS011;76003;49.038;16.594;2024-03-23T02:16:46;7.35;;;5.80;;
85559;SDS011;76003;49.038;16.594;2024-03-23T02:19:27;6.53;;;5.85;;
85559;SDS011;76003;49.038;16.594;2024-03-23T02:24:50;9.18;;;6.90;;
85559;SDS011;76003;49.038;16.594;2024-03-23T02:27:31;10.40;;;6.80;;
85559;SDS011;76003;49.038;16.594;2024-03-23T02:30:12;8.45;;;6.97;;
85559;SDS011;76003;49.038;16.594;2024-03-23T02:32:38;8.85;;;6.93;;
85559;SDS011;76003;49.038;16.594;2024-03-23T02:35:24;7.60;;;5.72;;
85559;SDS011;76003;49.038;16.594;2024-03-23T02:40:45;8.25;;;5.97;;
85559;SDS011;76003;49.038;16.594;2024-03-23T02:43:25;7.20;;;5.55;;
85559;SDS011;76003;49.038;16.594;2024-03-23T02:45:51;9.27;;;6.80;;
85559;SDS011;76003;49.038;16.594;2024-03-23T02:48:38;9.65;;;5.55;;
85559;SDS011;76003;49.038;16.594;2024-03-23T02:51:03;8.07;;;6.25;;
85559;SDS011;76003;49.038;16.594;2024-03-23T02:53:50;8.35;;;6.38;;
85559;SDS011;76003;49.038;16.594;2024-03-23T02:56:32;6.63;;;5.43;;
85559;SDS011;76003;49.038;16.594;2024-03-23T02:59:13;8.10;;;6.15;;
85559;SDS011;76003;49.038;16.594;2024-03-23T03:01:53;8.93;;;6.30;;
85559;SDS011;76003;49.038;16.594;2024-03-23T03:04:34;8.02;;;5.90;;
85559;SDS011;76003;49.038;16.594;2024-03-23T03:07:15;10.23;;;6.13;;
85559;SDS011;76003;49.038;16.594;2024-03-23T03:09:42;7.80;;;6.38;;
85559;SDS011;76003;49.038;16.594;2024-03-23T03:12:28;8.93;;;6.80;;
85559;SDS011;76003;49.038;16.594;2024-03-23T03:17:49;9.27;;;6.57;;
85559;SDS011;76003;49.038;16.594;2024-03-23T03:20:29;9.00;;;6.13;;
85559;SDS011;76003;49.038;16.594;2024-03-23T03:22:55;8.07;;;6.47;;
85559;SDS011;76003;49.038;16.594;2024-03-23T03:25:41;8.25;;;6.70;;
85559;SDS011;76003;49.038;16.594;2024-03-23T03:28:22;6.80;;;6.03;;
85559;SDS011;76003;49.038;16.594;2024-03-23T03:31:03;7.88;;;5.93;;
85559;SDS011;76003;49.038;16.594;2024-03-23T03:33:29;6.22;;;5.18;;
85559;SDS011;76003;49.038;16.594;2024-03-23T03:36:15;9.35;;;5.97;;
85559;SDS011;76003;49.038;16.594;2024-03-23T03:38:56;6.30;;;5.70;;
85559;SDS011;76003;49.038;16.594;2024-03-23T03:44:17;7.22;;;5.88;;
85559;SDS011;76003;49.038;16.594;2024-03-23T03:46:43;9.55;;;6.10;;
85559;SDS011;76003;49.038;16.594;2024-03-23T03:49:29;8.23;;;6.20;;
85559;SDS011;76003;49.038;16.594;2024-03-23T03:52:10;7.30;;;5.93;;
85559;SDS011;76003;49.038;16.594;2024-03-23T03:54:51;8.38;;;6.72;;
85559;SDS011;76003;49.038;16.594;2024-03-23T04:00:12;8.10;;;6.18;;
85559;SDS011;76003;49.038;16.594;2024-03-23T04:02:53;7.60;;;6.60;;
85559;SDS011;76003;49.038;16.594;2024-03-23T04:05:18;8.57;;;6.70;;
85559;SDS011;76003;49.038;16.594;2024-03-23T04:08:06;8.93;;;6.70;;
85559;SDS011;76003;49.038;16.594;2024-03-23T04:10:33;8.38;;;6.30;;
85559;SDS011;76003;49.038;16.594;2024-03-23T04:13:19;8.93;;;6.38;;
85559;SDS011;76003;49.038;16.594;2024-03-23T04:15:45;8.70;;;7.05;;
85559;SDS011;76003;49.038;16.594;2024-03-23T04:19:27;8.60;;;6.20;;
85559;SDS011;76003;49.038;16.594;2024-03-23T04:21:52;9.05;;;6.97;;
85559;SDS011;76003;49.038;16.594;2024-03-23T04:24:41;7.57;;;6.00;;
85559;SDS011;76003;49.038;16.594;2024-03-23T04:28:07;8.90;;;6.43;;
85559;SDS011;76003;49.038;16.594;2024-03-23T04:31:32;9.77;;;8.15;;
85559;SDS011;76003;49.038;16.594;2024-03-23T04:34:59;9.35;;;7.28;;
85559;SDS011;76003;49.038;16.594;2024-03-23T04:38:25;10.05;;;6.53;;
85559;SDS011;76003;49.038;16.594;2024-03-23T04:40:54;9.63;;;8.20;;
85559;SDS011;76003;49.038;16.594;2024-03-23T04:44:01;9.15;;;6.60;;
85559;SDS011;76003;49.038;16.594;2024-03-23T04:46:27;9.50;;;7.45;;
85559;SDS011;76003;49.038;16.594;2024-03-23T04:49:13;9.20;;;7.00;;
85559;SDS011;76003;49.038;16.594;2024-03-23T04:51:39;13.13;;;8.30;;
85559;SDS011;76003;49.038;16.594;2024-03-23T04:54:44;7.55;;;6.40;;
85559;SDS011;76003;49.038;16.594;2024-03-23T04:57:11;9.48;;;6.75;;
85559;SDS011;76003;49.038;16.594;2024-03-23T04:59:57;18.27;;;12.48;;
85559;SDS011;76003;49.038;16.594;2024-03-23T05:03:23;17.63;;;14.80;;
85559;SDS011;76003;49.038;16.594;2024-03-23T05:06:49;13.40;;;10.02;;
85559;SDS011;76003;49.038;16.594;2024-03-23T05:10:14;13.13;;;8.00;;
85559;SDS011;76003;49.038;16.594;2024-03-23T05:13:39;10.40;;;8.02;;
85559;SDS011;76003;49.038;16.594;2024-03-23T05:16:06;11.23;;;8.63;;
85559;SDS011;76003;49.038;16.594;2024-03-23T05:19:08;13.43;;;9.23;;
85559;SDS011;76003;49.038;16.594;2024-03-23T05:21:34;11.82;;;9.18;;
85559;SDS011;76003;49.038;16.594;2024-03-23T05:24:20;12.38;;;9.75;;
85559;SDS011;76003;49.038;16.594;2024-03-23T05:26:46;10.25;;;8.10;;
85559;SDS011;76003;49.038;16.594;2024-03-23T05:29:33;11.80;;;9.05;;
85559;SDS011;76003;49.038;16.594;2024-03-23T05:31:58;9.77;;;8.85;;
85559;SDS011;76003;49.038;16.594;2024-03-23T05:34:23;10.18;;;8.18;;
85559;SDS011;76003;49.038;16.594;2024-03-23T05:36:50;10.00;;;8.63;;
85559;SDS011;76003;49.038;16.594;2024-03-23T05:39:16;11.10;;;8.07;;
85559;SDS011;76003;49.038;16.594;2024-03-23T05:42:19;10.68;;;8.07;;
85559;SDS011;76003;49.038;16.594;2024-03-23T05:45:44;8.82;;;6.78;;
85559;SDS011;76003;49.038;16.594;2024-03-23T05:49:10;10.32;;;8.63;;
85559;SDS011;76003;49.038;16.594;2024-03-23T05:52:35;10.20;;;8.13;;
85559;SDS011;76003;49.038;16.594;2024-03-23T05:56:01;11.98;;;9.23;;
85559;SDS011;76003;49.038;16.594;2024-03-23T05:58:31;11.95;;;8.73;;
85559;SDS011;76003;49.038;16.594;2024-03-23T06:01:18;12.57;;;8.40;;
85559;SDS011;76003;49.038;16.594;2024-03-23T06:03:43;10.10;;;8.25;;
85559;SDS011;76003;49.038;16.594;2024-03-23T06:08:56;12.88;;;8.30;;
85559;SDS011;76003;49.038;16.594;2024-03-23T06:12:38;11.77;;;8.70;;
85559;SDS011;76003;49.038;16.594;2024-03-23T06:15:04;13.35;;;9.43;;
85559;SDS011;76003;49.038;16.594;2024-03-23T06:18:07;11.13;;;8.15;;
85559;SDS011;76003;49.038;16.594;2024-03-23T06:20:47;8.52;;;7.60;;
85559;SDS011;76003;49.038;16.594;2024-03-23T06:23:28;10.25;;;8.05;;
85559;SDS011;76003;49.038;16.594;2024-03-23T06:26:08;10.88;;;8.60;;
85559;SDS011;76003;49.038;16.594;2024-03-23T06:31:29;9.32;;;7.80;;
85559;SDS011;76003;49.038;16.594;2024-03-23T06:33:55;9.13;;;8.20;;
85559;SDS011;76003;49.038;16.594;2024-03-23T06:36:42;11.65;;;8.02;;
85559;SDS011;76003;49.038;16.594;2024-03-23T06:40:08;9.98;;;7.57;;
85559;SDS011;76003;49.038;16.594;2024-03-23T06:43:34;10.10;;;7.90;;
85559;SDS011;76003;49.038;16.594;2024-03-23T06:46:01;10.40;;;8.32;;
85559;SDS011;76003;49.038;16.594;2024-03-23T06:48:49;12.20;;;7.95;;
85559;SDS011;76003;49.038;16.594;2024-03-23T06:51:15;12.65;;;7.82;;
85559;SDS011;76003;49.038;16.594;2024-03-23T06:54:02;10.93;;;7.53;;
85559;SDS011;76003;49.038;16.594;2024-03-23T06:56:47;10.55;;;7.90;;
85559;SDS011;76003;49.038;16.594;2024-03-23T06:59:27;8.70;;;7.30;;
85559;SDS011;76003;49.038;16.594;2024-03-23T07:02:07;8.45;;;6.70;;
85559;SDS011;76003;49.038;16.594;2024-03-23T07:04:48;9.43;;;6.75;;
85559;SDS011;76003;49.038;16.594;2024-03-23T07:07:29;11.38;;;7.22;;
85559;SDS011;76003;49.038;16.594;2024-03-23T07:09:55;8.27;;;6.47;;
85559;SDS011;76003;49.038;16.594;2024-03-23T07:15:22;8.98;;;5.88;;
85559;SDS011;76003;49.038;16.594;2024-03-23T07:18:03;7.75;;;6.30;;
85559;SDS011;76003;49.038;16.594;2024-03-23T07:20:51;7.80;;;7.00;;
85559;SDS011;76003;49.038;16.594;2024-03-23T07:23:18;7.95;;;7.15;;
85559;SDS011;76003;49.038;16.594;2024-03-23T07:26:05;8.23;;;6.82;;
85559;SDS011;76003;49.038;16.594;2024-03-23T07:28:33;8.15;;;6.47;;
85559;SDS011;76003;49.038;16.594;2024-03-23T07:31:20;9.13;;;7.60;;
85559;SDS011;76003;49.038;16.594;2024-03-23T07:34:01;6.85;;;6.13;;
85559;SDS011;76003;49.038;16.594;2024-03-23T07:36:42;8.10;;;6.75;;
85559;SDS011;76003;49.038;16.594;2024-03-23T07:39:22;8.00;;;6.72;;
85559;SDS011;76003;49.038;16.594;2024-03-23T07:42:03;6.53;;;5.60;;
85559;SDS011;76003;49.038;16.594;2024-03-23T07:44:37;7.43;;;6.70;;
85559;SDS011;76003;49.038;16.594;2024-03-23T07:47:23;9.45;;;6.20;;
85559;SDS011;76003;49.038;16.594;2024-03-23T07:50:04;8.82;;;6.70;;
85559;SDS011;76003;49.038;16.594;2024-03-23T07:52:44;7.00;;;6.38;;
85559;SDS011;76003;49.038;16.594;2024-03-23T07:55:25;6.30;;;5.70;;
85559;SDS011;76003;49.038;16.594;2024-03-23T07:57:58;6.82;;;6.20;;
85559;SDS011;76003;49.038;16.594;2024-03-23T08:00:44;7.70;;;6.60;;
85559;SDS011;76003;49.038;16.594;2024-03-23T08:03:18;7.82;;;7.03;;
85559;SDS011;76003;49.038;16.594;2024-03-23T08:11:39;8.80;;;7.00;;
85559;SDS011;76003;49.038;16.594;2024-03-23T08:14:19;7.28;;;6.28;;
85559;SDS011;76003;49.038;16.594;2024-03-23T08:17:00;7.40;;;6.65;;
85559;SDS011;76003;49.038;16.594;2024-03-23T08:19:26;7.10;;;6.18;;
85559;SDS011;76003;49.038;16.594;2024-03-23T08:22:12;7.68;;;6.90;;
85559;SDS011;76003;49.038;16.594;2024-03-23T08:24:52;7.72;;;6.80;;
85559;SDS011;76003;49.038;16.594;2024-03-23T08:27:33;7.72;;;7.03;;
85559;SDS011;76003;49.038;16.594;2024-03-23T08:29:59;7.93;;;7.13;;
85559;SDS011;76003;49.038;16.594;2024-03-23T08:32:59;7.82;;;7.10;;
85559;SDS011;76003;49.038;16.594;2024-03-23T08:36:24;7.18;;;6.47;;
85559;SDS011;76003;49.038;16.594;2024-03-23T08:38:50;8.35;;;6.95;;
85559;SDS011;76003;49.038;16.594;2024-03-23T08:41:39;7.80;;;6.55;;
85559;SDS011;76003;49.038;16.594;2024-03-23T08:44:05;7.88;;;6.75;;
85559;SDS011;76003;49.038;16.594;2024-03-23T08:47:47;7.55;;;6.45;;
85559;SDS011;76003;49.038;16.594;2024-03-23T08:50:13;8.73;;;6.63;;
85559;SDS011;76003;49.038;16.594;2024-03-23T08:52:38;9.15;;;7.60;;
85559;SDS011;76003;49.038;16.594;2024-03-23T08:55:04;7.55;;;6.85;;
85559;SDS011;76003;49.038;16.594;2024-03-23T08:58:07;7.75;;;6.95;;
85559;SDS011;76003;49.038;16.594;2024-03-23T09:00:49;7.43;;;6.65;;
85559;SDS011;76003;49.038;16.594;2024-03-23T09:03:30;7.45;;;6.75;;
85559;SDS011;76003;49.038;16.594;2024-03-23T09:05:56;7.78;;;6.57;;
85559;SDS011;76003;49.038;16.594;2024-03-23T09:08:44;6.45;;;5.60;;
85559;SDS011;76003;49.038;16.594;2024-03-23T09:11:24;6.03;;;5.43;;
85559;SDS011;76003;49.038;16.594;2024-03-23T09:13:50;6.88;;;5.95;;
85559;SDS011;76003;49.038;16.594;2024-03-23T09:16:36;5.90;;;5.30;;
85559;SDS011;76003;49.038;16.594;2024-03-23T09:19:17;7.35;;;6.65;;
85559;SDS011;76003;49.038;16.594;2024-03-23T09:21:43;7.07;;;5.85;;
85559;SDS011;76003;49.038;16.594;2024-03-23T09:25:14;7.03;;;6.07;;
85559;SDS011;76003;49.038;16.594;2024-03-23T09:28:40;6.43;;;5.65;;
85559;SDS011;76003;49.038;16.594;2024-03-23T09:32:05;7.90;;;5.78;;
85559;SDS011;76003;49.038;16.594;2024-03-23T09:35:31;6.68;;;5.80;;
85559;SDS011;76003;49.038;16.594;2024-03-23T09:38:11;11.23;;;6.28;;
85559;SDS011;76003;49.038;16.594;2024-03-23T09:40:52;6.72;;;6.10;;
85559;SDS011;76003;49.038;16.594;2024-03-23T09:43:33;5.88;;;5.28;;
85559;SDS011;76003;49.038;16.594;2024-03-23T09:46:14;5.97;;;5.15;;
85559;SDS011;76003;49.038;16.594;2024-03-23T09:48:41;5.75;;;5.25;;
85559;SDS011;76003;49.038;16.594;2024-03-23T09:51:30;6.78;;;5.10;;
85559;SDS011;76003;49.038;16.594;2024-03-23T09:53:56;4.32;;;3.80;;
85559;SDS011;76003;49.038;16.594;2024-03-23T09:56:44;5.55;;;3.65;;
85559;SDS011;76003;49.038;16.594;2024-03-23T09:59:12;4.80;;;3.92;;
85559;SDS011;76003;49.038;16.594;2024-03-23T10:02:15;5.00;;;4.22;;
85559;SDS011;76003;49.038;16.594;2024-03-23T10:04:57;4.55;;;4.07;;
85559;SDS011;76003;49.038;16.594;2024-03-23T10:07:37;4.78;;;4.35;;
85559;SDS011;76003;49.038;16.594;2024-03-23T10:10:17;3.75;;;3.42;;
85559;SDS011;76003;49.038;16.594;2024-03-23T10:12:59;4.28;;;3.45;;
85559;SDS011;76003;49.038;16.594;2024-03-23T10:15:39;3.28;;;2.97;;
85559;SDS011;76003;49.038;16.594;2024-03-23T10:18:20;3.45;;;3.15;;
85559;SDS011;76003;49.038;16.594;2024-03-23T10:23:51;2.97;;;2.65;;
85559;SDS011;76003;49.038;16.594;2024-03-23T10:29:05;3.25;;;2.85;;
85559;SDS011;76003;49.038;16.594;2024-03-23T10:31:36;4.40;;;3.45;;
85559;SDS011;76003;49.038;16.594;2024-03-23T10:34:25;3.88;;;2.55;;
85559;SDS011;76003;49.038;16.594;2024-03-23T10:37:07;4.20;;;2.55;;
85559;SDS011;76003;49.038;16.594;2024-03-23T10:39:48;2.83;;;2.63;;
85559;SDS011;76003;49.038;16.594;2024-03-23T10:42:29;2.42;;;2.22;;
85559;SDS011;76003;49.038;16.594;2024-03-23T10:45:10;2.75;;;2.55;;
85559;SDS011;76003;49.038;16.594;2024-03-23T10:47:51;2.80;;;2.60;;
85559;SDS011;76003;49.038;16.594;2024-03-23T10:50:32;2.83;;;2.42;;
85559;SDS011;76003;49.038;16.594;2024-03-23T10:53:13;5.20;;;2.67;;
85559;SDS011;76003;49.038;16.594;2024-03-23T10:55:45;2.40;;;1.90;;
85559;SDS011;76003;49.038;16.594;2024-03-23T11:01:04;2.33;;;2.13;;
85559;SDS011;76003;49.038;16.594;2024-03-23T11:03:51;2.67;;;2.22;;
85559;SDS011;76003;49.038;16.594;2024-03-23T11:15:03;2.97;;;2.08;;
85559;SDS011;76003;49.038;16.594;2024-03-23T11:18:04;2.20;;;1.83;;
85559;SDS011;76003;49.038;16.594;2024-03-23T11:20:46;4.28;;;2.08;;
85559;SDS011;76003;49.038;16.594;2024-03-23T11:23:27;2.97;;;2.00;;
85559;SDS011;76003;49.038;16.594;2024-03-23T11:26:08;2.38;;;1.10;;
85559;SDS011;76003;49.038;16.594;2024-03-23T11:28:34;1.90;;;1.70;;
85559;SDS011;76003;49.038;16.594;2024-03-23T11:31:20;1.90;;;1.75;;
85559;SDS011;76003;49.038;16.594;2024-03-23T11:33:47;2.40;;;2.20;;
85559;SDS011;76003;49.038;16.594;2024-03-23T11:36:27;2.65;;;2.05;;
85559;SDS011;76003;49.038;16.594;2024-03-23T11:39:17;2.50;;;1.63;;
85559;SDS011;76003;49.038;16.594;2024-03-23T11:41:48;2.17;;;1.58;;
85559;SDS011;76003;49.038;16.594;2024-03-23T11:44:38;2.47;;;1.60;;
85559;SDS011;76003;49.038;16.594;2024-03-23T11:47:07;3.38;;;1.50;;
85559;SDS011;76003;49.038;16.594;2024-03-23T11:49:54;3.03;;;1.70;;
85559;SDS011;76003;49.038;16.594;2024-03-23T11:52:35;4.30;;;1.88;;
85559;SDS011;76003;49.038;16.594;2024-03-23T11:55:16;4.93;;;1.80;;
85559;SDS011;76003;49.038;16.594;2024-03-23T11:57:57;7.15;;;2.22;;
85559;SDS011;76003;49.038;16.594;2024-03-23T12:00:37;5.47;;;2.15;;
85559;SDS011;76003;49.038;16.594;2024-03-23T12:03:18;2.28;;;1.70;;
85559;SDS011;76003;49.038;16.594;2024-03-23T12:06:05;4.97;;;1.77;;
85559;SDS011;76003;49.038;16.594;2024-03-23T12:08:47;5.47;;;1.35;;
85559;SDS011;76003;49.038;16.594;2024-03-23T12:11:15;2.53;;;1.00;;
85559;SDS011;76003;49.038;16.594;2024-03-23T12:14:02;2.70;;;1.38;;
85559;SDS011;76003;49.038;16.594;2024-03-23T12:16:31;2.00;;;1.10;;
85559;SDS011;76003;49.038;16.594;2024-03-23T12:19:18;1.30;;;0.90;;
85559;SDS011;76003;49.038;16.594;2024-03-23T12:21:53;1.08;;;0.93;;
85559;SDS011;76003;49.038;16.594;2024-03-23T12:24:40;1.55;;;1.02;;
85559;SDS011;76003;49.038;16.594;2024-03-23T12:27:11;1.02;;;0.93;;
85559;SDS011;76003;49.038;16.594;2024-03-23T12:30:52;1.20;;;1.02;;
85559;SDS011;76003;49.038;16.594;2024-03-23T12:34:19;1.50;;;1.10;;
85559;SDS011;76003;49.038;16.594;2024-03-23T12:37:44;5.28;;;1.30;;
85559;SDS011;76003;49.038;16.594;2024-03-23T12:41:09;3.03;;;1.02;;
85559;SDS011;76003;49.038;16.594;2024-03-23T12:44:36;1.15;;;0.88;;
85559;SDS011;76003;49.038;16.594;2024-03-23T12:48:01;2.08;;;0.82;;
85559;SDS011;76003;49.038;16.594;2024-03-23T12:51:16;1.42;;;0.93;;
85559;SDS011;76003;49.038;16.594;2024-03-23T12:53:41;1.02;;;0.82;;
85559;SDS011;76003;49.038;16.594;2024-03-23T12:56:28;1.20;;;1.05;;
85559;SDS011;76003;49.038;16.594;2024-03-23T12:58:54;1.33;;;0.70;;
85559;SDS011;76003;49.038;16.594;2024-03-23T13:01:42;1.45;;;1.00;;
85559;SDS011;76003;49.038;16.594;2024-03-23T13:04:11;2.22;;;0.90;;
85559;SDS011;76003;49.038;16.594;2024-03-23T13:09:38;1.83;;;1.02;;
85559;SDS011;76003;49.038;16.594;2024-03-23T13:12:19;1.38;;;1.27;;
85559;SDS011;76003;49.038;16.594;2024-03-23T13:15:00;1.20;;;1.10;;
85559;SDS011;76003;49.038;16.594;2024-03-23T13:17:41;1.23;;;1.13;;
85559;SDS011;76003;49.038;16.594;2024-03-23T13:20:21;1.08;;;0.98;;
85559;SDS011;76003;49.038;16.594;2024-03-23T13:23:01;1.02;;;0.70;;
85559;SDS011;76003;49.038;16.594;2024-03-23T13:25:28;3.42;;;1.17;;
85559;SDS011;76003;49.038;16.594;2024-03-23T13:28:21;1.75;;;1.25;;
85559;SDS011;76003;49.038;16.594;2024-03-23T13:30:52;1.20;;;1.10;;
85559;SDS011;76003;49.038;16.594;2024-03-23T13:33:49;1.50;;;1.40;;
85559;SDS011;76003;49.038;16.594;2024-03-23T13:36:15;1.35;;;1.02;;
85559;SDS011;76003;49.038;16.594;2024-03-23T13:39:12;1.13;;;1.00;;
85559;SDS011;76003;49.038;16.594;2024-03-23T13:41:54;1.73;;;1.40;;
85559;SDS011;76003;49.038;16.594;2024-03-23T13:44:37;1.20;;;1.10;;
85559;SDS011;76003;49.038;16.594;2024-03-23T13:47:17;1.35;;;1.17;;
85559;SDS011;76003;49.038;16.594;2024-03-23T13:49:58;2.10;;;1.35;;
85559;SDS011;76003;49.038;16.594;2024-03-23T13:52:39;2.28;;;1.60;;
85559;SDS011;76003;49.038;16.594;2024-03-23T13:55:20;2.25;;;1.70;;
85559;SDS011;76003;49.038;16.594;2024-03-23T13:58:00;3.00;;;2.70;;
85559;SDS011;76003;49.038;16.594;2024-03-23T14:00:27;1.65;;;1.55;;
85559;SDS011;76003;49.038;16.594;2024-03-23T14:03:13;1.75;;;1.45;;
85559;SDS011;76003;49.038;16.594;2024-03-23T14:05:40;1.70;;;1.30;;
85559;SDS011;76003;49.038;16.594;2024-03-23T14:08:27;2.60;;;1.38;;
85559;SDS011;76003;49.038;16.594;2024-03-23T14:10:55;2.00;;;1.48;;
85559;SDS011;76003;49.038;16.594;2024-03-23T14:13:43;1.67;;;1.00;;
85559;SDS011;76003;49.038;16.594;2024-03-23T14:16:24;1.58;;;1.17;;
85559;SDS011;76003;49.038;16.594;2024-03-23T14:19:04;3.17;;;1.15;;
85559;SDS011;76003;49.038;16.594;2024-03-23T14:21:46;1.48;;;1.10;;
85559;SDS011;76003;49.038;16.594;2024-03-23T14:24:26;3.22;;;1.60;;
85559;SDS011;76003;49.038;16.594;2024-03-23T14:27:06;1.90;;;1.55;;
85559;SDS011;76003;49.038;16.594;2024-03-23T14:29:47;2.10;;;1.80;;
85559;SDS011;76003;49.038;16.594;2024-03-23T14:32:27;3.95;;;1.27;;
85559;SDS011;76003;49.038;16.594;2024-03-23T14:35:09;1.63;;;1.38;;
85559;SDS011;76003;49.038;16.594;2024-03-23T14:37:38;1.70;;;0.93;;
85559;SDS011;76003;49.038;16.594;2024-03-23T14:40:25;1.45;;;1.27;;
85559;SDS011;76003;49.038;16.594;2024-03-23T14:42:53;1.55;;;1.35;;
85559;SDS011;76003;49.038;16.594;2024-03-23T14:46:05;2.33;;;1.30;;
85559;SDS011;76003;49.038;16.594;2024-03-23T14:48:32;1.75;;;1.08;;
85559;SDS011;76003;49.038;16.594;2024-03-23T14:51:19;3.88;;;1.52;;
85559;SDS011;76003;49.038;16.594;2024-03-23T14:54:02;1.67;;;1.13;;
85559;SDS011;76003;49.038;16.594;2024-03-23T14:56:44;1.73;;;1.30;;
85559;SDS011;76003;49.038;16.594;2024-03-23T14:59:27;2.28;;;1.63;;
85559;SDS011;76003;49.038;16.594;2024-03-23T15:02:07;1.35;;;1.20;;
85559;SDS011;76003;49.038;16.594;2024-03-23T15:04:48;1.50;;;1.35;;
85559;SDS011;76003;49.038;16.594;2024-03-23T15:07:28;2.30;;;1.60;;
85559;SDS011;76003;49.038;16.594;2024-03-23T15:10:09;1.98;;;1.60;;
85559;SDS011;76003;49.038;16.594;2024-03-23T15:12:35;1.88;;;1.70;;
85559;SDS011;76003;49.038;16.594;2024-03-23T15:15:22;1.98;;;1.45;;
85559;SDS011;76003;49.038;16.594;2024-03-23T15:17:47;2.65;;;2.08;;
85559;SDS011;76003;49.038;16.594;2024-03-23T15:23:16;1.65;;;1.20;;
85559;SDS011;76003;49.038;16.594;2024-03-23T15:25:41;1.58;;;1.40;;
85559;SDS011;76003;49.038;16.594;2024-03-23T15:28:28;1.60;;;1.50;;
85559;SDS011;76003;49.038;16.594;2024-03-23T15:34:01;1.25;;;1.13;;
85559;SDS011;76003;49.038;16.594;2024-03-23T15:36:42;1.33;;;1.23;;
85559;SDS011;76003;49.038;16.594;2024-03-23T15:39:25;3.25;;;0.82;;
85559;SDS011;76003;49.038;16.594;2024-03-23T15:42:05;1.90;;;1.42;;
85559;SDS011;76003;49.038;16.594;2024-03-23T15:44:47;1.30;;;1.20;;
85559;SDS011;76003;49.038;16.594;2024-03-23T15:47:22;1.58;;;1.30;;
85559;SDS011;76003;49.038;16.594;2024-03-23T15:50:09;3.45;;;1.35;;
85559;SDS011;76003;49.038;16.594;2024-03-23T15:52:36;2.25;;;1.50;;
85559;SDS011;76003;49.038;16.594;2024-03-23T15:58:03;1.80;;;1.70;;
85559;SDS011;76003;49.038;16.594;2024-03-23T16:00:29;2.67;;;2.05;;
85559;SDS011;76003;49.038;16.594;2024-03-23T16:03:16;4.22;;;2.42;;
85559;SDS011;76003;49.038;16.594;2024-03-23T16:05:58;2.85;;;2.33;;
85559;SDS011;76003;49.038;16.594;2024-03-23T16:08:39;1.90;;;1.67;;
85559;SDS011;76003;49.038;16.594;2024-03-23T16:11:20;1.88;;;1.60;;
85559;SDS011;76003;49.038;16.594;2024-03-23T16:14:01;1.63;;;1.52;;
85559;SDS011;76003;49.038;16.594;2024-03-23T16:16:42;1.90;;;1.33;;
85559;SDS011;76003;49.038;16.594;2024-03-23T16:19:22;1.80;;;1.60;;
85559;SDS011;76003;49.038;16.594;2024-03-23T16:22:03;2.00;;;1.70;;
85559;SDS011;76003;49.038;16.594;2024-03-23T16:24:29;1.50;;;1.40;;
85559;SDS011;76003;49.038;16.594;2024-03-23T16:27:16;2.05;;;1.55;;
85559;SDS011;76003;49.038;16.594;2024-03-23T16:32:36;1.83;;;1.60;;
85559;SDS011;76003;49.038;16.594;2024-03-23T16:35:04;2.25;;;1.77;;
85559;SDS011;76003;49.038;16.594;2024-03-23T16:37:51;1.45;;;1.23;;
85559;SDS011;76003;49.038;16.594;2024-03-23T16:40:17;1.73;;;1.33;;
85559;SDS011;76003;49.038;16.594;2024-03-23T16:43:03;1.33;;;1.20;;
85559;SDS011;76003;49.038;16.594;2024-03-23T16:45:50;2.08;;;1.55;;
85559;SDS011;76003;49.038;16.594;2024-03-23T16:48:43;2.13;;;1.42;;
85559;SDS011;76003;49.038;16.594;2024-03-23T16:51:24;1.50;;;1.40;;
85559;SDS011;76003;49.038;16.594;2024-03-23T16:56:45;1.42;;;1.13;;
85559;SDS011;76003;49.038;16.594;2024-03-23T16:59:11;1.50;;;1.40;;
85559;SDS011;76003;49.038;16.594;2024-03-23T17:01:58;1.52;;;1.23;;
85559;SDS011;76003;49.038;16.594;2024-03-23T17:04:38;1.40;;;1.10;;
85559;SDS011;76003;49.038;16.594;2024-03-23T17:07:04;1.55;;;1.45;;
85559;SDS011;76003;49.038;16.594;2024-03-23T17:10:05;1.77;;;1.45;;
85559;SDS011;76003;49.038;16.594;2024-03-23T17:12:31;1.98;;;1.33;;
85559;SDS011;76003;49.038;16.594;2024-03-23T17:15:18;2.60;;;1.42;;
85559;SDS011;76003;49.038;16.594;2024-03-23T17:18:01;2.60;;;1.80;;
85559;SDS011;76003;49.038;16.594;2024-03-23T17:20:41;3.70;;;2.35;;
85559;SDS011;76003;49.038;16.594;2024-03-23T17:23:23;2.05;;;1.85;;
85559;SDS011;76003;49.038;16.594;2024-03-23T17:26:04;3.63;;;2.20;;
85559;SDS011;76003;49.038;16.594;2024-03-23T17:28:45;2.10;;;1.90;;
85559;SDS011;76003;49.038;16.594;2024-03-23T17:31:26;2.33;;;2.13;;
85559;SDS011;76003;49.038;16.594;2024-03-23T17:33:54;1.98;;;1.77;;
85559;SDS011;76003;49.038;16.594;2024-03-23T17:36:41;2.42;;;1.77;;
85559;SDS011;76003;49.038;16.594;2024-03-23T17:39:07;2.70;;;2.20;;
85559;SDS011;76003;49.038;16.594;2024-03-23T17:42:07;3.17;;;2.40;;
85559;SDS011;76003;49.038;16.594;2024-03-23T17:44:51;4.38;;;2.65;;
85559;SDS011;76003;49.038;16.594;2024-03-23T17:47:17;3.45;;;2.60;;
85559;SDS011;76003;49.038;16.594;2024-03-23T17:50:04;3.15;;;1.60;;
85559;SDS011;76003;49.038;16.594;2024-03-23T17:52:45;2.25;;;2.05;;
85559;SDS011;76003;49.038;16.594;2024-03-23T17:55:26;2.13;;;1.48;;
85559;SDS011;76003;49.038;16.594;2024-03-23T17:57:52;3.85;;;3.00;;
85559;SDS011;76003;49.038;16.594;2024-03-23T18:01:34;2.60;;;2.40;;
85559;SDS011;76003;49.038;16.594;2024-03-23T18:04:59;2.95;;;2.70;;
85559;SDS011;76003;49.038;16.594;2024-03-23T18:08:25;2.70;;;2.03;;